Pagina principale
METAR-TAF:

METAR-TAF

Aeroporti :

Aeroporto di Reggio Calabria

Reggio Calabria, Italia

latitudine: 38-04N, longitudine: 015-39E, altezza: 11 m

Osservazione

Il bollettino è stato emesso 4 ore e 55 minuti fa, alle 21:50 UTC
Vento 3 kt da nord/nord-est, variando fra nord/nord-ovest e est/nord-est
Temperature 21°C
Umidità 83%
Pressione 1013 hPa
Visibilità 10 km o più
nessuna nube inferiore a 1500 m e nessun cumulonembo

METAR: LICR 182150Z 02003KT 330V070 CAVOK 21/18 Q1013

Ora: 04:45 (02:45 UTC)

Previsione

Il bollettino è stato emesso 9 ore e 45 minuti fa, alle 17:00 UTC
Previsione valida dal 18 alle 18 UTC al 19 alle 18 UTC
Vento 15 kt da sud
Visibilità 10 km o più
Nubi sparse ad un'altezza di 3000 ft
Temporaneamente
dal 19 alle 00 UTC al 19 alle 09 UTC
rovesci di pioggia

TAF: LICR 181700Z 1818/1918 18015KT 9999 SCT030 TEMPO 1900/1909 SHRA

Osservazioni e previsioni meteorologiche di più di 4000 aeroporti (messaggi METAR e TAF).

Le stazioni disponibili sono rappresentate dai dischi gialli e rossi sulla carta.

Puntare il mouse per vedere il nome della stazione.

Clicca sopra per visualizzare le osservazioni e previsioni meteorologiche.

Per cambiare la mappa : fare clic sui pulsanti verdi con una croce nera per ingrandire, il pulsante verde con un trattino per diminuire, o sulla freccia verde per le mappe adiacenti.


METAR-TAF: